createdAt,value
2022-10-12T00:03:07.948Z,34.78
2022-10-12T00:07:09.498Z,34.85
2022-10-12T00:11:14.697Z,40.58
2022-10-12T00:15:16.594Z,37.58
2022-10-12T00:19:18.433Z,35.50
2022-10-12T00:23:20.032Z,35.92
2022-10-12T00:27:22.064Z,38.58
2022-10-12T00:31:24.605Z,35.03
2022-10-12T00:35:29.625Z,34.75
2022-10-12T00:39:31.279Z,36.50
2022-10-12T00:43:39.256Z,38.17
2022-10-12T00:47:51.601Z,38.50
2022-10-12T00:51:58.702Z,38.90
2022-10-12T00:56:04.749Z,38.10
2022-10-12T01:00:09.777Z,37.53
2022-10-12T01:04:11.618Z,36.67
2022-10-12T01:08:13.508Z,40.53
2022-10-12T01:12:16.181Z,39.03
2022-10-12T01:17:01.626Z,36.53
2022-10-12T01:21:20.949Z,39.92
2022-10-12T01:25:53.666Z,37.97
2022-10-12T01:30:07.260Z,36.83
2022-10-12T01:34:18.016Z,38.33
2022-10-12T01:38:44.675Z,35.78
2022-10-12T01:42:47.424Z,36.63
2022-10-12T01:46:49.795Z,34.55
2022-10-12T01:50:56.293Z,38.97
2022-10-12T01:55:19.619Z,36.78
2022-10-12T01:59:59.424Z,34.55
2022-10-12T02:04:10.185Z,33.60
2022-10-12T02:08:31.192Z,33.35
2022-10-12T02:12:34.562Z,34.10
2022-10-12T02:16:42.322Z,33.65
2022-10-12T02:20:48.824Z,32.37
2022-10-12T02:24:53.152Z,35.00
2022-10-12T02:28:55.269Z,33.10
2022-10-12T02:33:05.808Z,33.42
2022-10-12T02:37:12.288Z,33.83
2022-10-12T02:41:23.368Z,32.45
2022-10-12T02:45:25.819Z,35.30
2022-10-12T02:49:29.620Z,31.38
2022-10-12T02:53:31.360Z,32.35
2022-10-12T02:57:33.265Z,34.90
2022-10-12T03:01:34.925Z,31.17
2022-10-12T03:05:37.165Z,33.40
2022-10-12T03:09:38.838Z,30.83
2022-10-12T03:13:40.798Z,31.17
2022-10-12T03:17:42.735Z,30.67
2022-10-12T03:21:44.765Z,32.70
2022-10-12T03:25:46.415Z,30.27
2022-10-12T03:29:48.246Z,31.58
2022-10-12T03:33:49.867Z,29.65
2022-10-12T03:37:51.763Z,32.63
2022-10-12T03:41:53.532Z,30.92
2022-10-12T03:45:55.345Z,31.10
2022-10-12T03:49:57.004Z,34.17
2022-10-12T03:53:58.920Z,32.42
2022-10-12T03:58:00.704Z,32.60
2022-10-12T04:02:02.523Z,32.95
2022-10-12T04:06:04.755Z,31.52
2022-10-12T04:10:07.219Z,28.42
2022-10-12T04:14:08.897Z,34.42
2022-10-12T04:18:11.019Z,32.90
2022-10-12T04:22:12.736Z,32.58
2022-10-12T04:26:14.599Z,37.35
2022-10-12T04:30:16.367Z,35.38
2022-10-12T04:34:19.531Z,33.70
2022-10-12T04:38:21.165Z,36.67
2022-10-12T04:42:23.215Z,35.25
2022-10-12T04:46:24.913Z,38.03
2022-10-12T04:50:30.053Z,42.80
2022-10-12T04:54:32.874Z,39.20
2022-10-12T04:58:35.568Z,35.83
2022-10-12T05:02:37.264Z,32.13
2022-10-12T05:06:39.282Z,31.83
2022-10-12T05:10:40.922Z,34.47
2022-10-12T05:14:44.304Z,33.03
2022-10-12T05:18:46.205Z,37.22
2022-10-12T05:22:47.978Z,34.28
2022-10-12T05:26:49.842Z,35.67
2022-10-12T05:30:52.979Z,36.75
2022-10-12T05:34:55.249Z,36.78
2022-10-12T05:38:57.049Z,41.22
2022-10-12T05:42:58.774Z,35.08
2022-10-12T05:47:00.540Z,36.33
2022-10-12T05:51:02.330Z,41.78
2022-10-12T05:55:04.847Z,38.13
2022-10-12T05:59:06.507Z,37.30
2022-10-12T06:03:08.297Z,37.15
2022-10-12T06:07:10.144Z,41.70
2022-10-12T06:11:12.026Z,38.13
2022-10-12T06:15:13.825Z,38.03
2022-10-12T06:19:15.866Z,40.35
2022-10-12T06:23:18.066Z,38.35
2022-10-12T06:27:21.203Z,39.05
2022-10-12T06:31:23.306Z,39.90
2022-10-12T06:35:25.128Z,36.53
2022-10-12T06:39:26.903Z,39.70
2022-10-12T06:43:28.807Z,37.97
2022-10-12T06:47:30.466Z,39.55
2022-10-12T06:51:32.302Z,35.97
2022-10-12T06:55:34.156Z,35.40
2022-10-12T06:59:35.952Z,39.28
2022-10-12T07:03:37.681Z,40.55
2022-10-12T07:07:39.744Z,37.55
2022-10-12T07:11:41.427Z,40.38
2022-10-12T07:15:49.798Z,34.67
2022-10-12T07:19:51.460Z,34.55
2022-10-12T07:23:53.392Z,32.25
2022-10-12T07:27:55.027Z,34.15
2022-10-12T07:31:58.173Z,34.38
2022-10-12T07:36:21.231Z,31.58
2022-10-12T07:40:22.942Z,32.45
2022-10-12T07:44:24.781Z,31.20
2022-10-12T07:48:26.588Z,30.40
2022-10-12T07:52:28.416Z,29.25
2022-10-12T07:56:30.297Z,28.65
2022-10-12T08:00:32.623Z,28.60
2022-10-12T08:04:34.476Z,26.10
2022-10-12T08:08:36.367Z,25.70
2022-10-12T08:12:38.173Z,26.92
2022-10-12T08:16:39.924Z,25.35
2022-10-12T08:20:41.884Z,26.05
2022-10-12T08:24:43.825Z,24.10
2022-10-12T08:28:45.891Z,23.10
2022-10-12T08:32:47.794Z,23.73
2022-10-12T08:36:49.654Z,20.48
2022-10-12T08:40:58.290Z,20.13
2022-10-12T08:45:20.421Z,19.25
2022-10-12T08:49:25.697Z,17.23
2022-10-12T08:53:36.236Z,17.02
2022-10-12T08:57:37.958Z,15.60
2022-10-12T09:01:57.214Z,14.85
2022-10-12T09:06:11.941Z,11.35
2022-10-12T09:10:19.736Z,11.43
2022-10-12T09:14:26.438Z,11.50
2022-10-12T09:18:41.026Z,11.15
2022-10-12T09:22:47.981Z,8.73
2022-10-12T09:26:53.589Z,7.95
2022-10-12T09:31:06.434Z,6.07
2022-10-12T09:35:13.265Z,5.82
2022-10-12T09:39:25.676Z,5.50
2022-10-12T09:43:31.340Z,4.45
2022-10-12T09:47:33.887Z,4.35
2022-10-12T09:51:35.886Z,3.50
2022-10-12T09:55:37.836Z,3.20
2022-10-12T09:59:44.406Z,3.47
2022-10-12T10:03:48.904Z,3.17
2022-10-12T10:07:50.865Z,3.75
2022-10-12T10:11:52.703Z,3.13
2022-10-12T10:16:06.641Z,3.83
2022-10-12T10:20:26.291Z,3.83
2022-10-12T10:24:31.045Z,3.40
2022-10-12T10:28:57.499Z,3.33
2022-10-12T10:33:15.661Z,3.22
2022-10-12T10:37:22.801Z,3.95
2022-10-12T10:41:28.540Z,3.17
2022-10-12T10:45:42.292Z,3.22
2022-10-12T10:49:49.849Z,3.28
2022-10-12T10:53:51.673Z,3.90
2022-10-12T10:58:04.077Z,2.67
2022-10-12T11:02:24.999Z,3.33
2022-10-12T11:06:42.348Z,2.80
2022-10-12T11:10:50.272Z,4.00
2022-10-12T11:14:56.922Z,3.38
2022-10-12T11:19:02.296Z,3.88
2022-10-12T11:23:16.131Z,3.05
2022-10-12T11:27:25.829Z,3.45
2022-10-12T11:31:39.852Z,3.58
2022-10-12T11:35:44.982Z,3.78
2022-10-12T11:39:51.785Z,2.60
2022-10-12T11:44:04.016Z,2.95
2022-10-12T11:48:12.243Z,3.42
2022-10-12T11:52:15.460Z,3.33
2022-10-12T11:56:37.331Z,3.05
2022-10-12T12:01:16.625Z,3.20
2022-10-12T12:05:18.641Z,2.95
2022-10-12T12:09:39.774Z,2.70
2022-10-12T12:13:41.884Z,2.85
2022-10-12T12:18:04.413Z,3.10
2022-10-12T12:22:32.107Z,3.38
2022-10-12T12:26:33.952Z,3.67
2022-10-12T12:30:39.407Z,3.35
2022-10-12T12:34:51.371Z,3.63
2022-10-12T12:38:53.667Z,3.72
2022-10-12T12:43:34.476Z,3.58
2022-10-12T12:47:46.454Z,4.20
2022-10-12T12:51:52.457Z,3.97
2022-10-12T12:56:00.401Z,2.97
2022-10-12T13:00:12.530Z,3.60
2022-10-12T13:04:35.664Z,3.88
2022-10-12T13:08:59.023Z,4.20
2022-10-12T13:13:24.243Z,3.20
2022-10-12T13:17:39.727Z,3.88
2022-10-12T13:21:45.743Z,3.80
2022-10-12T13:25:57.107Z,3.42
2022-10-12T13:30:11.772Z,3.30
2022-10-12T13:34:24.794Z,3.17
2022-10-12T13:38:29.203Z,9.57
2022-10-12T13:42:35.831Z,7.15
2022-10-12T13:46:54.882Z,11.02
2022-10-12T13:51:02.372Z,176.15
2022-10-12T13:55:15.663Z,82.68
2022-10-12T13:59:22.174Z,45.45
2022-10-12T14:03:26.630Z,44.67
2022-10-12T14:07:34.804Z,11.52
2022-10-12T14:11:37.867Z,3.67
2022-10-12T14:15:40.956Z,14.15
2022-10-12T14:19:54.281Z,14.50
2022-10-12T14:23:58.947Z,16.67
2022-10-12T14:28:03.770Z,10.23
2022-10-12T14:32:27.041Z,3.78
2022-10-12T14:36:29.270Z,2.85
2022-10-12T14:40:41.994Z,2.58
2022-10-12T14:44:44.102Z,2.58
2022-10-12T14:48:45.935Z,3.22
2022-10-12T14:52:55.056Z,4.20
2022-10-12T14:57:09.385Z,3.30
2022-10-12T15:01:11.466Z,7.07
2022-10-12T15:05:15.125Z,4.82
2022-10-12T15:09:17.050Z,7.55
2022-10-12T15:13:18.802Z,5.35
2022-10-12T15:17:21.277Z,11.00
2022-10-12T15:21:23.034Z,10.95
2022-10-12T15:25:29.442Z,12.25
2022-10-12T15:29:31.164Z,22.27
2022-10-12T15:33:33.129Z,25.83
2022-10-12T15:37:34.883Z,29.38
2022-10-12T15:41:36.881Z,21.65
2022-10-12T15:45:40.040Z,17.58
2022-10-12T15:49:42.249Z,19.40
2022-10-12T15:53:44.994Z,19.30
2022-10-12T15:57:47.870Z,21.45
2022-10-12T16:01:49.801Z,14.15
2022-10-12T16:05:51.679Z,13.50
2022-10-12T16:09:53.352Z,13.45
2022-10-12T16:13:56.854Z,14.07
2022-10-12T16:18:00.123Z,14.50
2022-10-12T16:22:03.206Z,9.85
2022-10-12T16:26:07.958Z,10.65
2022-10-12T16:30:11.275Z,7.35
2022-10-12T16:34:12.917Z,6.75
2022-10-12T16:38:15.224Z,6.22
2022-10-12T16:42:16.997Z,6.85
2022-10-12T16:46:19.093Z,6.88
2022-10-12T16:50:23.086Z,7.35
2022-10-12T16:54:25.723Z,7.88
2022-10-12T16:58:27.419Z,14.48
2022-10-12T17:02:29.298Z,18.67
2022-10-12T17:06:31.211Z,27.83
2022-10-12T17:10:33.051Z,18.77
2022-10-12T17:14:34.962Z,18.60
2022-10-12T17:18:36.842Z,23.42
2022-10-12T17:22:38.870Z,34.58
2022-10-12T17:26:41.316Z,40.88
2022-10-12T17:30:43.012Z,63.20
2022-10-12T17:34:45.059Z,63.05
2022-10-12T17:38:49.720Z,58.20
2022-10-12T17:42:51.586Z,51.78
2022-10-12T17:46:53.246Z,50.58
2022-10-12T17:51:10.010Z,48.50
2022-10-12T17:55:29.504Z,49.20
2022-10-12T17:59:33.520Z,51.45
2022-10-12T18:03:36.015Z,47.78
2022-10-12T18:07:38.508Z,58.22
2022-10-12T18:11:40.635Z,69.03
2022-10-12T18:15:43.598Z,82.00
2022-10-12T18:19:47.133Z,71.47
2022-10-12T18:23:49.695Z,77.45
2022-10-12T18:27:52.313Z,91.47
2022-10-12T18:31:54.854Z,94.75
2022-10-12T18:36:05.502Z,96.85
2022-10-12T18:40:08.065Z,122.65
2022-10-12T18:44:11.064Z,110.32
2022-10-12T18:48:13.509Z,99.38
2022-10-12T18:52:15.816Z,83.53
2022-10-12T18:56:19.361Z,76.95
2022-10-12T19:00:21.061Z,72.80
2022-10-12T19:04:22.942Z,76.93
2022-10-12T19:08:24.620Z,69.10
2022-10-12T19:12:26.460Z,70.90
2022-10-12T19:16:29.357Z,71.47
2022-10-12T19:20:36.670Z,73.95
2022-10-12T19:24:38.418Z,79.93
2022-10-12T19:28:40.683Z,73.32
2022-10-12T19:32:42.948Z,73.38
2022-10-12T19:36:45.228Z,73.13
2022-10-12T19:40:47.016Z,66.95
2022-10-12T19:44:48.877Z,67.15
2022-10-12T19:48:52.308Z,57.10
2022-10-12T19:52:54.286Z,60.97
2022-10-12T19:56:56.025Z,61.45
2022-10-12T20:01:05.888Z,57.50
2022-10-12T20:05:07.814Z,45.30
2022-10-12T20:09:09.873Z,41.08
2022-10-12T20:13:12.245Z,36.20
2022-10-12T20:17:14.198Z,44.25
2022-10-12T20:21:19.216Z,42.10
2022-10-12T20:25:21.230Z,47.92
2022-10-12T20:29:23.074Z,47.70
2022-10-12T20:33:24.939Z,40.03
2022-10-12T20:37:26.910Z,47.30
2022-10-12T20:41:28.941Z,51.20
2022-10-12T20:45:30.624Z,52.70
2022-10-12T20:49:32.610Z,52.97
2022-10-12T20:53:34.999Z,50.65
2022-10-12T20:57:36.910Z,57.40
2022-10-12T21:01:38.757Z,54.65
2022-10-12T21:05:40.679Z,63.80
2022-10-12T21:09:42.590Z,66.05
2022-10-12T21:13:46.088Z,68.50
2022-10-12T21:17:47.879Z,72.20
2022-10-12T21:21:49.687Z,76.20
2022-10-12T21:25:52.116Z,79.38
2022-10-12T21:29:53.954Z,87.13
2022-10-12T21:33:55.820Z,89.65
2022-10-12T21:37:57.662Z,75.57
2022-10-12T21:41:59.624Z,65.28
2022-10-12T21:46:05.055Z,60.03
2022-10-12T21:50:09.323Z,73.05
2022-10-12T21:54:11.284Z,58.45
2022-10-12T21:58:13.205Z,51.28
2022-10-12T22:02:15.269Z,48.58
2022-10-12T22:06:19.967Z,51.85
2022-10-12T22:10:23.810Z,53.13
2022-10-12T22:14:25.514Z,58.72
2022-10-12T22:18:27.563Z,51.17
2022-10-12T22:22:29.234Z,46.20
2022-10-12T22:26:31.914Z,45.78
2022-10-12T22:30:39.349Z,45.13
2022-10-12T22:34:41.168Z,51.88
2022-10-12T22:38:43.288Z,49.15
2022-10-12T22:42:46.000Z,50.97
2022-10-12T22:46:47.724Z,52.15
2022-10-12T22:50:50.695Z,56.75
2022-10-12T22:54:52.417Z,54.13
2022-10-12T22:58:56.543Z,52.00
2022-10-12T23:02:58.399Z,52.25
2022-10-12T23:07:00.207Z,52.47
2022-10-12T23:11:04.929Z,52.72
2022-10-12T23:15:08.025Z,51.97
2022-10-12T23:19:10.375Z,53.28
2022-10-12T23:23:12.194Z,54.95
2022-10-12T23:27:14.511Z,51.28
2022-10-12T23:31:22.043Z,60.85
2022-10-12T23:35:25.470Z,60.67
2022-10-12T23:39:28.929Z,57.47
2022-10-12T23:43:31.028Z,58.05
2022-10-12T23:47:36.308Z,56.92
2022-10-12T23:51:38.083Z,49.83
2022-10-12T23:55:40.580Z,52.97
2022-10-12T23:59:42.257Z,48.85
